Time;durP1;ratioP1;P1;durP2;ratioP2;P2;SDS_P1;SDS_P2;PMS_P1;PMS_P2;Temp;Humidity;BMP_temperature;BMP_pressure;BME280_temperature;BME280_humidity;BME280_pressure;Samples;Min_cycle;Max_cycle;Signal;HPM_P1;HPM_P2
2023/01/30 00:01:31;;;;;;;;;;;0.40;82.20;;;;;;5007963;28;83158;-38
2023/01/30 00:03:56;;;;;;;;;;;0.40;82.40;;;;;;5010804;28;81970;-38
2023/01/30 00:06:22;;;;;;;;;;;0.40;82.40;;;;;;5009061;28;81393;-38
2023/01/30 00:08:48;;;;;;;;;;;0.40;82.50;;;;;;5008469;28;82085;-38
2023/01/30 00:11:14;;;;;;;;;;;0.40;82.30;;;;;;5008708;28;82463;-38
2023/01/30 00:13:40;;;;;;;;;;;0.40;82.30;;;;;;5007501;28;86069;-38
2023/01/30 00:16:06;;;;;;;;;;;0.40;82.20;;;;;;5008590;28;81938;-38
2023/01/30 00:18:31;;;;;;;;;;;0.40;82.40;;;;;;5008297;28;82388;-38
2023/01/30 00:20:58;;;;;;;;;;;0.40;82.00;;;;;;5008166;28;84410;-38
2023/01/30 00:23:24;;;;;;;;;;;0.30;82.40;;;;;;5008333;28;82148;-38
2023/01/30 00:25:49;;;;;;;;;;;0.30;82.50;;;;;;5010950;28;81979;-38
2023/01/30 00:28:15;;;;;;;;;;;0.30;82.20;;;;;;5008421;28;82025;-38
2023/01/30 00:30:40;;;;;;;;;;;0.40;82.40;;;;;;5008807;28;82296;-38
2023/01/30 00:33:06;;;;;;;;;;;0.40;82.30;;;;;;5007834;28;82091;-38
2023/01/30 00:35:32;;;;;;;;;;;0.30;82.40;;;;;;5007628;28;82080;-38
2023/01/30 00:37:58;;;;;;;;;;;0.30;82.30;;;;;;5007144;28;84140;-38
2023/01/30 00:40:24;;;;;;;;;;;0.30;82.30;;;;;;5007736;28;83425;-38
2023/01/30 00:48:20;;;;;;;;;;;0.30;82.40;;;;;;4988612;28;82260;-38
2023/01/30 00:50:45;;;;;;;;;;;0.30;82.40;;;;;;5007938;28;81965;-38
2023/01/30 00:53:12;;;;;;;;;;;0.30;82.40;;;;;;5007826;28;83106;-38
2023/01/30 00:55:38;;;;;;;;;;;0.30;82.40;;;;;;5008244;28;81236;-38
2023/01/30 00:58:04;;;;;;;;;;;0.30;82.40;;;;;;5007893;28;81928;-38
2023/01/30 01:00:29;;;;;;;;;;;0.30;82.50;;;;;;5007396;28;83466;-38
2023/01/30 01:02:55;;;;;;;;;;;0.30;82.30;;;;;;5006708;28;83100;-38
2023/01/30 01:05:20;;;;;;;;;;;0.30;82.40;;;;;;5007918;28;83503;-38
2023/01/30 01:07:46;;;;;;;;;;;0.30;82.40;;;;;;5007495;28;83040;-38
2023/01/30 01:10:15;;;;;;;;;;;0.30;82.30;;;;;;5010315;28;81900;-38
2023/01/30 01:12:42;;;;;;;;;;;0.30;82.30;;;;;;5007228;28;82859;-38
2023/01/30 01:15:08;;;;;;;;;;;0.30;82.40;;;;;;5007200;28;81984;-38
2023/01/30 01:17:33;;;;;;;;;;;0.30;82.40;;;;;;5007750;28;82370;-38
2023/01/30 01:19:59;;;;;;;;;;;0.30;82.30;;;;;;5007737;28;82415;-38
2023/01/30 01:22:24;;;;;;;;;;;0.30;82.50;;;;;;5007521;28;82155;-38
2023/01/30 01:24:50;;;;;;;;;;;0.30;82.40;;;;;;5007405;28;81855;-38
2023/01/30 01:27:15;;;;;;;;;;;0.30;82.40;;;;;;5006442;28;84130;-37
2023/01/30 01:29:41;;;;;;;;;;;0.30;82.20;;;;;;5006918;28;82116;-38
2023/01/30 01:32:06;;;;;;;;;;;0.30;82.30;;;;;;5009767;28;82554;-38
2023/01/30 01:34:32;;;;;;;;;;;0.30;82.40;;;;;;5007101;28;82106;-38
2023/01/30 01:36:57;;;;;;;;;;;0.20;82.40;;;;;;5007270;28;82621;-38
2023/01/30 01:39:23;;;;;;;;;;;0.30;82.40;;;;;;5007238;28;83091;-38
2023/01/30 01:41:48;;;;;;;;;;;0.30;82.50;;;;;;5007138;28;82099;-38
2023/01/30 01:44:15;;;;;;;;;;;0.30;82.50;;;;;;5007352;28;82448;-38
2023/01/30 01:46:44;;;;;;;;;;;0.30;82.30;;;;;;5005678;28;84551;-38
2023/01/30 01:49:23;;;;;;;;;;;0.30;82.30;;;;;;5007042;28;82560;-38
2023/01/30 01:51:55;;;;;;;;;;;0.30;82.30;;;;;;5008915;28;82894;-38
2023/01/30 01:54:42;;;;;;;;;;;0.30;82.20;;;;;;5006823;28;82087;-38
2023/01/30 01:57:10;;;;;;;;;;;0.30;82.00;;;;;;5006971;28;82418;-38
2023/01/30 01:59:42;;;;;;;;;;;0.30;82.40;;;;;;5006299;28;83204;-38
2023/01/30 02:02:09;;;;;;;;;;;0.30;82.30;;;;;;5006072;28;82134;-38
2023/01/30 02:07:20;;;;;;;;;;;0.30;82.30;;;;;;5006525;28;82187;-38
2023/01/30 02:09:46;;;;;;;;;;;0.30;82.20;;;;;;5007084;28;81349;-38
2023/01/30 02:12:13;;;;;;;;;;;0.20;82.40;;;;;;5006778;28;81849;-38
2023/01/30 02:14:38;;;;;;;;;;;0.30;82.30;;;;;;5009024;28;83162;-38
2023/01/30 02:17:04;;;;;;;;;;;0.20;82.30;;;;;;5006053;28;82821;-38
2023/01/30 02:19:30;;;;;;;;;;;0.20;82.30;;;;;;5006356;28;83236;-38
2023/01/30 02:22:21;;;;;;;;;;;0.30;82.40;;;;;;5006461;28;82221;-38
2023/01/30 02:25:09;;;;;;;;;;;0.20;82.40;;;;;;4967402;28;82549;-38
2023/01/30 02:27:34;;;;;;;;;;;0.20;82.40;;;;;;5006384;28;82772;-38
2023/01/30 02:30:12;;;;;;;;;;;0.20;82.40;;;;;;5006368;28;82096;-38
2023/01/30 02:32:45;;;;;;;;;;;0.20;82.30;;;;;;5006519;28;81875;-38
2023/01/30 02:35:10;;;;;;;;;;;0.20;82.30;;;;;;5006869;28;82476;-38
2023/01/30 02:37:44;;;;;;;;;;;0.20;82.30;;;;;;5009181;28;82101;-38
2023/01/30 02:40:10;;;;;;;;;;;0.20;82.30;;;;;;5006003;28;83113;-37
2023/01/30 02:42:48;;;;;;;;;;;0.20;82.30;;;;;;5005591;28;83248;-38
2023/01/30 02:45:34;;;;;;;;;;;0.20;82.20;;;;;;5006141;28;83560;-38
2023/01/30 02:48:02;;;;;;;;;;;0.20;82.40;;;;;;5005924;28;82979;-38
2023/01/30 02:50:38;;;;;;;;;;;0.20;82.40;;;;;;5005900;28;82112;-38
2023/01/30 02:53:05;;;;;;;;;;;0.20;82.50;;;;;;5005890;28;82013;-38
2023/01/30 02:55:30;;;;;;;;;;;0.20;82.40;;;;;;5005520;28;84611;-37
2023/01/30 02:57:56;;;;;;;;;;;0.20;82.40;;;;;;5005902;28;81952;-38
2023/01/30 03:00:40;;;;;;;;;;;0.20;82.50;;;;;;5008856;28;82715;-38
2023/01/30 03:03:17;;;;;;;;;;;0.20;82.50;;;;;;5005832;28;82246;-38
2023/01/30 03:06:14;;;;;;;;;;;0.20;82.30;;;;;;5005542;28;82673;-38
2023/01/30 03:08:43;;;;;;;;;;;0.20;82.20;;;;;;4949894;28;84230;-38
2023/01/30 03:11:09;;;;;;;;;;;0.20;82.50;;;;;;5005759;28;82099;-38
2023/01/30 03:13:53;;;;;;;;;;;0.20;82.30;;;;;;5005793;28;82408;-38
2023/01/30 03:16:24;;;;;;;;;;;0.20;82.20;;;;;;5005409;28;82191;-38
2023/01/30 03:18:50;;;;;;;;;;;0.20;82.40;;;;;;5005786;28;81933;-38
2023/01/30 03:21:15;;;;;;;;;;;0.20;82.30;;;;;;5005776;28;81982;-38
2023/01/30 03:23:43;;;;;;;;;;;0.10;82.40;;;;;;5008243;28;83112;-38
2023/01/30 03:26:11;;;;;;;;;;;0.10;82.50;;;;;;5006085;28;82488;-38
2023/01/30 03:28:37;;;;;;;;;;;0.20;82.40;;;;;;5005560;28;83056;-38
2023/01/30 03:31:02;;;;;;;;;;;0.20;82.30;;;;;;5005240;28;82066;-37
2023/01/30 03:33:28;;;;;;;;;;;0.20;82.00;;;;;;5005183;28;82911;-37
2023/01/30 03:35:53;;;;;;;;;;;0.20;82.30;;;;;;5005446;28;82957;-38
2023/01/30 03:38:19;;;;;;;;;;;0.20;82.20;;;;;;5005583;28;81833;-38
2023/01/30 03:40:44;;;;;;;;;;;0.20;81.90;;;;;;5005587;28;82447;-38
2023/01/30 03:43:10;;;;;;;;;;;0.20;82.10;;;;;;5005456;28;83055;-38
2023/01/30 03:45:35;;;;;;;;;;;0.20;82.00;;;;;;5007740;28;81943;-38
2023/01/30 03:48:01;;;;;;;;;;;0.20;82.00;;;;;;5005313;28;83207;-38
2023/01/30 03:50:28;;;;;;;;;;;0.20;82.40;;;;;;5005891;28;81341;-38
2023/01/30 03:52:53;;;;;;;;;;;0.20;82.00;;;;;;5005257;28;83144;-38
2023/01/30 03:55:19;;;;;;;;;;;0.20;82.00;;;;;;5005114;28;82118;-38
2023/01/30 03:57:44;;;;;;;;;;;0.20;82.70;;;;;;5004703;28;83194;-38
2023/01/30 04:00:10;;;;;;;;;;;0.20;82.10;;;;;;5004876;28;83366;-38
2023/01/30 04:02:37;;;;;;;;;;;0.10;82.10;;;;;;5004902;28;82933;-38
2023/01/30 04:05:03;;;;;;;;;;;0.10;82.20;;;;;;5007896;28;81985;-38
2023/01/30 04:07:28;;;;;;;;;;;0.10;82.10;;;;;;5004987;28;83159;-38
2023/01/30 04:09:54;;;;;;;;;;;0.10;82.20;;;;;;5006586;28;82117;-38
2023/01/30 04:12:20;;;;;;;;;;;0.10;82.30;;;;;;5008658;28;81986;-38
2023/01/30 04:14:46;;;;;;;;;;;0.10;82.30;;;;;;5008691;28;81181;-38
2023/01/30 04:17:11;;;;;;;;;;;0.10;82.30;;;;;;5008523;28;82120;-38
2023/01/30 04:19:37;;;;;;;;;;;0.10;82.30;;;;;;5008592;28;82402;-38
2023/01/30 04:22:02;;;;;;;;;;;0.10;82.20;;;;;;5007770;28;84108;-38
2023/01/30 04:24:28;;;;;;;;;;;0.10;82.20;;;;;;5008239;28;82065;-38
2023/01/30 04:26:53;;;;;;;;;;;0.20;82.20;;;;;;5010916;28;82344;-38
2023/01/30 04:29:19;;;;;;;;;;;0.10;82.30;;;;;;5008108;28;81931;-38
2023/01/30 04:31:44;;;;;;;;;;;0.10;82.30;;;;;;5008296;28;82423;-38
2023/01/30 04:34:09;;;;;;;;;;;0.10;82.00;;;;;;5007958;28;83029;-38
2023/01/30 04:36:35;;;;;;;;;;;0.10;82.80;;;;;;5008555;28;81829;-38
2023/01/30 04:39:01;;;;;;;;;;;0.10;82.10;;;;;;5008933;28;82275;-38
2023/01/30 04:41:27;;;;;;;;;;;0.10;82.00;;;;;;5007862;28;83237;-38
2023/01/30 04:43:52;;;;;;;;;;;0.10;82.10;;;;;;5007920;28;82119;-38
2023/01/30 04:46:18;;;;;;;;;;;0.20;82.00;;;;;;5007379;28;82886;-38
2023/01/30 04:48:43;;;;;;;;;;;0.10;82.20;;;;;;5010629;28;82982;-38
2023/01/30 04:51:09;;;;;;;;;;;0.10;82.20;;;;;;5008017;28;82360;-38
2023/01/30 04:53:34;;;;;;;;;;;0.10;82.20;;;;;;5007973;28;82405;-38
2023/01/30 04:56:00;;;;;;;;;;;0.10;82.20;;;;;;5007994;28;82023;-38
2023/01/30 04:58:25;;;;;;;;;;;0.10;82.20;;;;;;5007842;28;81895;-38
2023/01/30 05:00:51;;;;;;;;;;;0.10;82.00;;;;;;5007188;28;82857;-38
2023/01/30 05:03:16;;;;;;;;;;;0.10;82.20;;;;;;5007686;28;81308;-38
2023/01/30 05:05:44;;;;;;;;;;;0.10;82.70;;;;;;5007734;28;81946;-38
2023/01/30 05:08:10;;;;;;;;;;;0.10;82.30;;;;;;5007417;28;83030;-38
2023/01/30 05:10:35;;;;;;;;;;;0.10;82.30;;;;;;5009903;28;83131;-38
2023/01/30 05:13:02;;;;;;;;;;;0.10;82.30;;;;;;5007630;28;83293;-38
2023/01/30 05:15:27;;;;;;;;;;;0.00;82.20;;;;;;5007226;28;81927;-38
2023/01/30 05:17:53;;;;;;;;;;;0.00;82.20;;;;;;5007346;28;82395;-38
2023/01/30 05:20:18;;;;;;;;;;;0.10;82.20;;;;;;5007155;28;83142;-38
2023/01/30 05:22:44;;;;;;;;;;;0.00;82.20;;;;;;5007438;28;82085;-38
2023/01/30 05:25:09;;;;;;;;;;;0.00;82.30;;;;;;5007419;28;81959;-38
2023/01/30 05:27:35;;;;;;;;;;;0.10;82.10;;;;;;5007430;28;83985;-38
2023/01/30 05:30:00;;;;;;;;;;;0.00;82.20;;;;;;5006999;28;82029;-38
2023/01/30 05:32:29;;;;;;;;;;;0.00;82.30;;;;;;5009826;28;82389;-38
2023/01/30 05:34:54;;;;;;;;;;;0.10;82.20;;;;;;5006484;28;83035;-38
2023/01/30 05:37:21;;;;;;;;;;;0.10;82.10;;;;;;5007197;28;83524;-38
2023/01/30 05:39:46;;;;;;;;;;;0.10;82.20;;;;;;5006850;28;84658;-37
2023/01/30 05:42:12;;;;;;;;;;;0.10;82.00;;;;;;5006999;28;82048;-38
2023/01/30 05:44:37;;;;;;;;;;;0.10;82.00;;;;;;5006917;28;82481;-38
2023/01/30 05:47:03;;;;;;;;;;;0.00;82.20;;;;;;5006698;28;83884;-38
2023/01/30 05:49:28;;;;;;;;;;;0.00;82.20;;;;;;5007169;28;82139;-38
2023/01/30 05:51:54;;;;;;;;;;;0.00;82.20;;;;;;5009989;28;82416;-38
2023/01/30 05:54:19;;;;;;;;;;;0.00;82.20;;;;;;5006961;28;82130;-38
2023/01/30 05:56:47;;;;;;;;;;;0.00;82.20;;;;;;5007056;28;81897;-38
2023/01/30 05:59:14;;;;;;;;;;;0.10;82.10;;;;;;5005772;28;84169;-38
2023/01/30 06:01:39;;;;;;;;;;;0.10;81.80;;;;;;5006278;28;82281;-38
2023/01/30 06:04:05;;;;;;;;;;;0.10;81.90;;;;;;5006645;28;82491;-38
2023/01/30 06:06:30;;;;;;;;;;;0.10;82.20;;;;;;5006454;28;84320;-37
2023/01/30 06:08:56;;;;;;;;;;;0.00;82.10;;;;;;5006951;28;81971;-37
2023/01/30 06:11:22;;;;;;;;;;;0.00;82.00;;;;;;5006586;28;82547;-37
2023/01/30 06:13:48;;;;;;;;;;;0.10;81.90;;;;;;5009267;28;82618;-37
2023/01/30 06:16:14;;;;;;;;;;;0.10;82.00;;;;;;5006952;28;82506;-37
2023/01/30 06:18:39;;;;;;;;;;;0.00;82.00;;;;;;5006513;28;83195;-37
2023/01/30 06:21:05;;;;;;;;;;;0.10;82.10;;;;;;5006679;28;82064;-38
2023/01/30 06:23:31;;;;;;;;;;;0.00;82.50;;;;;;5005854;28;82910;-38
2023/01/30 06:25:57;;;;;;;;;;;0.00;82.10;;;;;;5006267;28;83006;-38
2023/01/30 06:28:23;;;;;;;;;;;0.00;82.20;;;;;;5006614;28;81987;-38
2023/01/30 06:30:49;;;;;;;;;;;0.00;82.30;;;;;;5006067;28;82321;-38
2023/01/30 06:33:14;;;;;;;;;;;0.00;82.20;;;;;;5005739;28;82111;-38
2023/01/30 06:35:40;;;;;;;;;;;0.00;82.20;;;;;;5009075;28;82459;-38
2023/01/30 06:38:10;;;;;;;;;;;0.00;82.10;;;;;;5006212;28;82958;-38
2023/01/30 06:40:36;;;;;;;;;;;0.00;82.10;;;;;;5006609;28;81375;-38
2023/01/30 06:43:01;;;;;;;;;;;0.00;82.10;;;;;;5006239;28;81875;-37
2023/01/30 06:45:27;;;;;;;;;;;0.00;82.30;;;;;;5005731;28;81897;-37
2023/01/30 06:47:53;;;;;;;;;;;-0.10;82.20;;;;;;5005488;28;82891;-37
2023/01/30 06:50:20;;;;;;;;;;;0.00;82.30;;;;;;5006016;28;83250;-37
2023/01/30 06:52:46;;;;;;;;;;;0.00;82.20;;;;;;5005557;28;82939;-37
2023/01/30 06:55:13;;;;;;;;;;;0.00;82.10;;;;;;5006055;28;81950;-37
2023/01/30 06:57:39;;;;;;;;;;;0.00;82.20;;;;;;5008471;28;82479;-38
2023/01/30 07:00:05;;;;;;;;;;;0.00;82.10;;;;;;5005761;28;82189;-38
2023/01/30 07:02:34;;;;;;;;;;;0.00;82.10;;;;;;5005287;28;84315;-37
2023/01/30 07:05:03;;;;;;;;;;;0.00;81.80;;;;;;5006045;28;82288;-37
2023/01/30 07:07:29;;;;;;;;;;;0.00;81.90;;;;;;5005859;28;81934;-37
2023/01/30 07:09:55;;;;;;;;;;;0.00;82.10;;;;;;5005792;28;82315;-37
2023/01/30 07:12:20;;;;;;;;;;;-0.10;82.00;;;;;;5005098;28;83964;-37
2023/01/30 07:14:46;;;;;;;;;;;-0.10;82.10;;;;;;5005740;28;82072;-37
2023/01/30 07:17:11;;;;;;;;;;;-0.10;82.10;;;;;;5005922;28;82317;-38
2023/01/30 07:19:37;;;;;;;;;;;-0.10;82.30;;;;;;5007976;28;84214;-38
2023/01/30 07:22:03;;;;;;;;;;;-0.10;82.00;;;;;;5005593;28;83664;-38
2023/01/30 07:24:29;;;;;;;;;;;0.00;82.00;;;;;;5005560;28;82966;-38
2023/01/30 07:26:55;;;;;;;;;;;-0.10;82.00;;;;;;5005729;28;81879;-38
2023/01/30 07:29:20;;;;;;;;;;;-0.10;82.20;;;;;;4988093;28;85584;-37
2023/01/30 07:31:46;;;;;;;;;;;-0.10;82.20;;;;;;5005562;28;82988;-37
2023/01/30 07:34:11;;;;;;;;;;;-0.10;82.20;;;;;;5005613;28;82243;-37
2023/01/30 07:36:37;;;;;;;;;;;-0.10;82.30;;;;;;5005152;28;82866;-37
2023/01/30 07:39:03;;;;;;;;;;;-0.10;82.20;;;;;;5005342;28;82468;-37
2023/01/30 07:41:28;;;;;;;;;;;-0.10;82.40;;;;;;5008284;28;82132;-37
2023/01/30 07:43:54;;;;;;;;;;;-0.10;82.20;;;;;;5004930;28;82886;-37
2023/01/30 07:46:19;;;;;;;;;;;-0.10;82.00;;;;;;5008893;28;82257;-37
2023/01/30 07:48:45;;;;;;;;;;;-0.10;82.00;;;;;;5009104;28;82541;-37
2023/01/30 07:51:10;;;;;;;;;;;-0.10;82.10;;;;;;5008714;28;83023;-38
2023/01/30 07:53:36;;;;;;;;;;;-0.10;82.30;;;;;;5009547;28;81423;-38
2023/01/30 07:56:13;;;;;;;;;;;-0.10;82.00;;;;;;5008660;28;81911;-37
2023/01/30 07:58:38;;;;;;;;;;;-0.10;82.10;;;;;;5008218;28;84559;-37
2023/01/30 08:01:04;;;;;;;;;;;-0.10;82.10;;;;;;5010063;28;83020;-37
2023/01/30 08:03:30;;;;;;;;;;;0.00;82.00;;;;;;5008197;28;82215;-37
2023/01/30 08:05:55;;;;;;;;;;;-0.10;82.00;;;;;;5008792;28;82182;-37
2023/01/30 08:08:21;;;;;;;;;;;-0.10;82.00;;;;;;5008647;28;82019;-37
2023/01/30 08:10:49;;;;;;;;;;;-0.10;82.00;;;;;;5008682;28;81956;-37
2023/01/30 08:13:15;;;;;;;;;;;0.00;82.00;;;;;;5008456;28;82079;-37
2023/01/30 08:15:40;;;;;;;;;;;-0.10;82.00;;;;;;5008670;28;82344;-37
2023/01/30 08:18:06;;;;;;;;;;;-0.10;82.10;;;;;;5008689;28;83775;-37
2023/01/30 08:20:32;;;;;;;;;;;-0.10;82.00;;;;;;5008309;28;82072;-37
2023/01/30 08:22:57;;;;;;;;;;;-0.10;81.90;;;;;;5010897;28;82555;-38
2023/01/30 08:25:23;;;;;;;;;;;-0.10;82.00;;;;;;5007698;28;82690;-38
2023/01/30 08:27:49;;;;;;;;;;;-0.10;82.00;;;;;;5008321;28;83272;-38
2023/01/30 08:30:14;;;;;;;;;;;-0.10;82.00;;;;;;5007513;28;83901;-38
2023/01/30 08:32:40;;;;;;;;;;;-0.10;82.00;;;;;;4990020;28;82153;-38
2023/01/30 08:35:06;;;;;;;;;;;-0.10;82.10;;;;;;5008115;28;84157;-38
2023/01/30 08:37:31;;;;;;;;;;;-0.10;82.10;;;;;;5007946;28;82138;-38
2023/01/30 08:39:57;;;;;;;;;;;-0.10;82.00;;;;;;5008137;28;82054;-38
2023/01/30 08:42:22;;;;;;;;;;;-0.10;81.80;;;;;;5008258;28;82543;-38
2023/01/30 08:44:48;;;;;;;;;;;-0.10;82.00;;;;;;5010728;28;83191;-38
2023/01/30 08:47:14;;;;;;;;;;;-0.10;82.00;;;;;;5007891;28;82424;-38
2023/01/30 08:49:39;;;;;;;;;;;-0.10;82.60;;;;;;5007048;28;83089;-38
2023/01/30 08:52:05;;;;;;;;;;;-0.10;82.10;;;;;;5007789;28;82242;-38
2023/01/30 08:54:30;;;;;;;;;;;-0.10;82.00;;;;;;5007843;28;82554;-38
2023/01/30 08:56:56;;;;;;;;;;;-0.10;82.00;;;;;;5007354;28;83285;-38
2023/01/30 08:59:21;;;;;;;;;;;-0.10;82.00;;;;;;5007933;28;82133;-37
2023/01/30 09:01:47;;;;;;;;;;;-0.10;81.90;;;;;;5007131;28;82074;-38
2023/01/30 09:04:12;;;;;;;;;;;-0.10;81.90;;;;;;5007449;28;83132;-38
2023/01/30 09:06:38;;;;;;;;;;;0.00;81.90;;;;;;5011124;28;81686;-38
2023/01/30 09:09:03;;;;;;;;;;;-0.10;82.00;;;;;;5007516;28;83161;-38
2023/01/30 09:11:29;;;;;;;;;;;-0.10;82.00;;;;;;5007259;28;82149;-37
2023/01/30 09:13:54;;;;;;;;;;;-0.10;82.00;;;;;;5007037;28;82976;-38
2023/01/30 09:16:20;;;;;;;;;;;-0.10;82.00;;;;;;5007499;28;83300;-38
2023/01/30 09:18:45;;;;;;;;;;;-0.10;81.90;;;;;;5007763;28;82206;-38
2023/01/30 09:21:12;;;;;;;;;;;-0.10;82.60;;;;;;5007475;28;81989;-38
2023/01/30 09:23:37;;;;;;;;;;;-0.10;82.00;;;;;;5007092;28;82173;-38
2023/01/30 09:26:03;;;;;;;;;;;-0.10;81.90;;;;;;5007663;28;81875;-38
2023/01/30 09:28:28;;;;;;;;;;;-0.10;82.10;;;;;;5009759;28;82454;-38
2023/01/30 09:30:57;;;;;;;;;;;0.00;81.90;;;;;;5007745;28;81358;-38
2023/01/30 09:33:23;;;;;;;;;;;-0.10;81.90;;;;;;5007514;28;81960;-38
2023/01/30 09:35:49;;;;;;;;;;;-0.10;82.10;;;;;;5007085;28;82025;-38
2023/01/30 09:38:15;;;;;;;;;;;-0.10;82.00;;;;;;5006337;28;82981;-37
2023/01/30 09:40:58;;;;;;;;;;;-0.10;82.10;;;;;;5007079;28;83159;-37
2023/01/30 09:43:42;;;;;;;;;;;-0.10;82.10;;;;;;5007240;28;82958;-37
2023/01/30 09:46:22;;;;;;;;;;;-0.10;82.00;;;;;;5007187;28;82127;-38
2023/01/30 09:49:10;;;;;;;;;;;-0.10;82.00;;;;;;5007360;28;82595;-38
2023/01/30 09:51:42;;;;;;;;;;;-0.10;82.00;;;;;;4962185;28;83228;-38
2023/01/30 09:54:36;;;;;;;;;;;-0.10;82.10;;;;;;5007086;28;82674;-38
2023/01/30 09:57:10;;;;;;;;;;;-0.10;82.00;;;;;;4985159;28;82531;-38
2023/01/30 10:00:01;;;;;;;;;;;-0.10;82.10;;;;;;5006488;28;81910;-37
2023/01/30 10:02:36;;;;;;;;;;;-0.10;82.10;;;;;;4967608;28;82543;-38
2023/01/30 10:05:03;;;;;;;;;;;-0.10;82.20;;;;;;5006262;28;84030;-38
2023/01/30 10:07:28;;;;;;;;;;;-0.10;82.20;;;;;;5005748;28;82231;-38
2023/01/30 10:10:10;;;;;;;;;;;-0.10;82.10;;;;;;5007039;28;82461;-38
2023/01/30 10:12:35;;;;;;;;;;;-0.10;82.00;;;;;;5008999;28;82657;-37
2023/01/30 10:15:18;;;;;;;;;;;-0.10;82.20;;;;;;5006715;28;82178;-37
2023/01/30 10:17:59;;;;;;;;;;;-0.10;82.70;;;;;;5006437;28;84248;-38
2023/01/30 10:20:36;;;;;;;;;;;-0.10;82.30;;;;;;5006668;28;81921;-38
2023/01/30 10:23:33;;;;;;;;;;;-0.10;82.20;;;;;;5006925;28;83609;-38
2023/01/30 10:26:10;;;;;;;;;;;-0.10;82.30;;;;;;4950837;28;82995;-38
2023/01/30 10:28:55;;;;;;;;;;;-0.10;82.20;;;;;;5006290;28;82062;-38
2023/01/30 10:31:23;;;;;;;;;;;-0.10;82.30;;;;;;5005000;28;82889;-38
2023/01/30 10:33:49;;;;;;;;;;;-0.10;82.20;;;;;;5006315;28;84283;-38
2023/01/30 10:36:23;;;;;;;;;;;-0.10;82.20;;;;;;5008964;28;82079;-38
2023/01/30 10:38:51;;;;;;;;;;;-0.20;82.40;;;;;;5006369;28;82322;-38
2023/01/30 10:41:35;;;;;;;;;;;-0.10;82.40;;;;;;5005990;28;81971;-38
2023/01/30 10:44:03;;;;;;;;;;;-0.20;82.30;;;;;;5006100;28;82214;-38
2023/01/30 10:46:28;;;;;;;;;;;-0.10;82.20;;;;;;5006162;28;82939;-38
2023/01/30 10:48:58;;;;;;;;;;;-0.10;82.20;;;;;;5006655;28;81228;-38
2023/01/30 10:51:32;;;;;;;;;;;-0.10;82.10;;;;;;5005712;28;82297;-37
2023/01/30 10:54:04;;;;;;;;;;;-0.10;82.20;;;;;;5005961;28;82959;-37
2023/01/30 10:56:29;;;;;;;;;;;-0.10;82.40;;;;;;5005563;28;82893;-38
2023/01/30 10:59:13;;;;;;;;;;;-0.10;82.20;;;;;;5008643;28;82247;-38
2023/01/30 11:01:42;;;;;;;;;;;-0.10;82.20;;;;;;5005190;28;82161;-38
2023/01/30 11:04:34;;;;;;;;;;;-0.10;82.30;;;;;;5005713;28;82488;-38
2023/01/30 11:07:01;;;;;;;;;;;-0.10;82.40;;;;;;5000350;28;83376;-38
2023/01/30 11:09:43;;;;;;;;;;;-0.10;82.30;;;;;;5005773;28;81903;-37
2023/01/30 11:12:09;;;;;;;;;;;-0.10;82.20;;;;;;4987777;28;84226;-38
2023/01/30 11:14:51;;;;;;;;;;;-0.10;82.30;;;;;;5006046;28;82176;-38
2023/01/30 11:17:17;;;;;;;;;;;-0.10;82.10;;;;;;5005483;28;82061;-37
2023/01/30 11:19:43;;;;;;;;;;;-0.10;82.10;;;;;;5008355;28;82442;-37
2023/01/30 11:22:11;;;;;;;;;;;-0.10;82.30;;;;;;5011367;28;82926;-38
2023/01/30 11:24:39;;;;;;;;;;;-0.10;82.30;;;;;;5009095;28;83273;-38
2023/01/30 11:27:30;;;;;;;;;;;-0.10;82.40;;;;;;5008972;28;82956;-38
2023/01/30 11:30:08;;;;;;;;;;;-0.10;82.20;;;;;;5003951;28;82080;-37
2023/01/30 11:32:33;;;;;;;;;;;-0.10;82.50;;;;;;5009368;28;82532;-37
2023/01/30 11:35:05;;;;;;;;;;;-0.10;82.30;;;;;;5009129;28;82964;-37
2023/01/30 11:37:41;;;;;;;;;;;0.00;82.20;;;;;;5009494;28;82078;-37
2023/01/30 11:40:26;;;;;;;;;;;0.00;82.00;;;;;;5009221;28;82385;-38
2023/01/30 11:43:01;;;;;;;;;;;0.00;82.00;;;;;;5007732;28;82845;-38
2023/01/30 11:45:29;;;;;;;;;;;-0.10;82.20;;;;;;5011582;28;82072;-37
2023/01/30 11:47:59;;;;;;;;;;;0.00;82.20;;;;;;5007899;28;85301;-37
2023/01/30 11:50:44;;;;;;;;;;;0.00;82.20;;;;;;5008469;28;82010;-38
2023/01/30 11:53:31;;;;;;;;;;;0.00;82.00;;;;;;5008000;28;81942;-38
2023/01/30 11:55:58;;;;;;;;;;;0.00;82.90;;;;;;5008779;28;83116;-38
2023/01/30 11:58:28;;;;;;;;;;;-0.10;82.30;;;;;;5008716;28;82023;-38
2023/01/30 12:00:53;;;;;;;;;;;-0.10;82.30;;;;;;5008619;28;82469;-38
2023/01/30 12:03:23;;;;;;;;;;;-0.10;82.40;;;;;;5008026;28;83705;-38
2023/01/30 12:05:48;;;;;;;;;;;-0.10;82.40;;;;;;5008965;28;81142;-37
2023/01/30 12:08:20;;;;;;;;;;;-0.10;82.30;;;;;;5011187;28;81929;-37
2023/01/30 12:10:52;;;;;;;;;;;-0.10;82.20;;;;;;5008706;28;82106;-37
2023/01/30 12:13:21;;;;;;;;;;;-0.10;82.40;;;;;;5007733;28;83261;-37
2023/01/30 12:15:49;;;;;;;;;;;-0.10;82.40;;;;;;5008380;28;83087;-38
2023/01/30 12:18:21;;;;;;;;;;;0.00;82.20;;;;;;5008562;28;82056;-38
2023/01/30 12:20:58;;;;;;;;;;;-0.10;82.30;;;;;;5008506;28;82995;-38
2023/01/30 12:23:45;;;;;;;;;;;-0.10;82.50;;;;;;5008016;28;83074;-38
2023/01/30 12:26:10;;;;;;;;;;;-0.10;82.30;;;;;;4990711;28;82139;-37
2023/01/30 12:28:39;;;;;;;;;;;-0.10;82.40;;;;;;5010590;28;82877;-37
2023/01/30 12:31:16;;;;;;;;;;;-0.10;82.60;;;;;;5008177;28;81346;-37
2023/01/30 12:33:41;;;;;;;;;;;-0.10;82.40;;;;;;5008533;28;82147;-37
2023/01/30 12:36:16;;;;;;;;;;;-0.10;82.70;;;;;;5008009;28;82791;-37
2023/01/30 12:38:51;;;;;;;;;;;-0.10;82.80;;;;;;5007551;28;83102;-38
2023/01/30 12:41:30;;;;;;;;;;;-0.10;82.70;;;;;;5008458;28;83241;-38
2023/01/30 12:43:58;;;;;;;;;;;-0.10;82.40;;;;;;5007601;28;83752;-38
2023/01/30 12:46:35;;;;;;;;;;;-0.10;82.50;;;;;;5007941;28;82012;-38
2023/01/30 12:49:19;;;;;;;;;;;-0.10;82.50;;;;;;5008219;28;82445;-37
2023/01/30 12:52:03;;;;;;;;;;;0.00;82.40;;;;;;5010425;28;82160;-37
2023/01/30 12:54:39;;;;;;;;;;;0.00;82.30;;;;;;5008158;28;82233;-37
2023/01/30 12:57:07;;;;;;;;;;;-0.10;82.40;;;;;;5008481;28;81374;-37
2023/01/30 13:00:02;;;;;;;;;;;-0.10;82.50;;;;;;5007599;28;81937;-37
2023/01/30 13:02:37;;;;;;;;;;;-0.10;82.60;;;;;;4985003;28;83981;-38
2023/01/30 13:05:21;;;;;;;;;;;-0.10;82.60;;;;;;5006810;28;85477;-38
2023/01/30 13:07:49;;;;;;;;;;;-0.10;82.70;;;;;;5007404;28;81923;-37
2023/01/30 13:10:41;;;;;;;;;;;-0.10;82.60;;;;;;5007616;28;82251;-37
2023/01/30 13:13:09;;;;;;;;;;;-0.10;82.70;;;;;;4969197;28;82935;-38
2023/01/30 13:16:01;;;;;;;;;;;-0.10;82.70;;;;;;5010392;28;82140;-38
2023/01/30 13:18:45;;;;;;;;;;;-0.10;82.80;;;;;;5002051;28;83098;-38
2023/01/30 13:21:33;;;;;;;;;;;-0.10;83.00;;;;;;5007531;28;82029;-38
2023/01/30 13:24:04;;;;;;;;;;;-0.20;83.00;;;;;;5007908;28;82570;-38
2023/01/30 13:26:34;;;;;;;;;;;-0.10;83.00;;;;;;5007438;28;82175;-38
2023/01/30 13:29:08;;;;;;;;;;;-0.10;83.00;;;;;;5007234;28;82086;-38
2023/01/30 13:31:35;;;;;;;;;;;-0.20;83.10;;;;;;5006781;28;82957;-37
2023/01/30 13:34:05;;;;;;;;;;;-0.20;83.10;;;;;;5006928;28;84771;-37
2023/01/30 13:36:35;;;;;;;;;;;-0.10;83.10;;;;;;5007230;28;82300;-37
2023/01/30 13:39:04;;;;;;;;;;;-0.10;83.10;;;;;;5009934;28;82455;-37
2023/01/30 13:41:35;;;;;;;;;;;-0.10;83.40;;;;;;5006535;28;82483;-37
2023/01/30 13:44:02;;;;;;;;;;;-0.10;83.10;;;;;;5006663;28;82544;-37
2023/01/30 13:46:29;;;;;;;;;;;-0.10;83.00;;;;;;5006798;28;82971;-37
2023/01/30 13:49:00;;;;;;;;;;;-0.10;83.00;;;;;;5007288;28;81410;-38
2023/01/30 13:51:40;;;;;;;;;;;-0.10;83.10;;;;;;5007105;28;81912;-38
2023/01/30 13:54:24;;;;;;;;;;;-0.20;83.20;;;;;;5006941;28;82952;-37
2023/01/30 13:57:05;;;;;;;;;;;-0.10;83.30;;;;;;5006255;28;83004;-37
2023/01/30 13:59:42;;;;;;;;;;;-0.10;83.20;;;;;;5007037;28;83344;-38
2023/01/30 14:02:15;;;;;;;;;;;-0.10;82.90;;;;;;5008706;28;83341;-38
2023/01/30 14:04:43;;;;;;;;;;;-0.10;83.10;;;;;;5006789;28;83873;-37
2023/01/30 14:07:28;;;;;;;;;;;-0.10;83.20;;;;;;5006612;28;84397;-37
2023/01/30 14:10:05;;;;;;;;;;;-0.10;83.20;;;;;;5006733;28;82047;-37
2023/01/30 14:12:39;;;;;;;;;;;-0.10;83.20;;;;;;5006826;28;81959;-37
2023/01/30 14:15:14;;;;;;;;;;;-0.20;83.20;;;;;;5006985;28;82173;-37
2023/01/30 14:18:06;;;;;;;;;;;-0.10;83.20;;;;;;5006751;28;82105;-37
2023/01/30 14:20:31;;;;;;;;;;;-0.10;83.10;;;;;;5001666;28;82209;-38
2023/01/30 14:22:59;;;;;;;;;;;-0.10;83.00;;;;;;5005524;28;83825;-38
2023/01/30 14:25:24;;;;;;;;;;;-0.10;83.20;;;;;;5008843;28;82104;-38
2023/01/30 14:27:59;;;;;;;;;;;-0.10;83.20;;;;;;5006411;28;82823;-38
2023/01/30 14:30:30;;;;;;;;;;;-0.10;83.20;;;;;;5006527;28;82116;-38
2023/01/30 14:33:00;;;;;;;;;;;-0.10;83.10;;;;;;5006235;28;83699;-37
2023/01/30 14:35:29;;;;;;;;;;;-0.10;83.40;;;;;;5005888;28;85860;-37
2023/01/30 14:38:09;;;;;;;;;;;-0.10;83.30;;;;;;5006035;28;82158;-38
2023/01/30 14:40:36;;;;;;;;;;;-0.10;83.40;;;;;;5006651;28;83795;-37
2023/01/30 14:43:10;;;;;;;;;;;-0.10;83.30;;;;;;5005726;28;84159;-38
2023/01/30 14:45:42;;;;;;;;;;;-0.10;83.40;;;;;;5008887;28;82080;-37